Time;durP1;ratioP1;P1;durP2;ratioP2;P2;SDS_P1;SDS_P2;PMS_P1;PMS_P2;Temp;Humidity;BMP_temperature;BMP_pressure;BME280_temperature;BME280_humidity;BME280_pressure;Samples;Min_cycle;Max_cycle;Signal;HPM_P1;HPM_P2
2021/08/22 00:00:10;;;;;;;2.67;1.60;;;;;;;18.20;100.00;101262.22;6247916;28;20053;-76
2021/08/22 00:03:13;;;;;;;2.30;1.92;;;;;;;18.15;99.88;101261.72;6247549;28;20052;-76
2021/08/22 00:06:14;;;;;;;3.60;2.00;;;;;;;18.09;100.00;101261.34;6247621;28;20041;-76
2021/08/22 00:09:15;;;;;;;3.05;1.85;;;;;;;18.04;100.00;101244.91;6247690;28;20056;-76
2021/08/22 00:12:17;;;;;;;2.55;1.83;;;;;;;17.99;100.00;101248.75;6247378;28;20061;-74
2021/08/22 00:15:19;;;;;;;2.92;1.92;;;;;;;17.95;100.00;101241.97;6247020;28;20045;-76
2021/08/22 00:18:22;;;;;;;2.55;1.92;;;;;;;17.88;100.00;101240.75;6247212;28;20053;-75
2021/08/22 00:21:23;;;;;;;2.72;1.92;;;;;;;17.87;100.00;101254.16;6247609;28;20046;-76
2021/08/22 00:24:24;;;;;;;2.08;1.40;;;;;;;17.84;100.00;101251.72;6246794;28;20045;-76
2021/08/22 00:27:26;;;;;;;2.33;1.40;;;;;;;17.77;100.00;101256.69;6247367;28;20056;-76
2021/08/22 00:30:27;;;;;;;1.60;1.38;;;;;;;17.72;100.00;101258.81;6247034;28;20056;-76
2021/08/22 00:33:30;;;;;;;2.25;1.58;;;;;;;17.66;100.00;101246.78;6246488;28;20056;-77
2021/08/22 00:36:31;;;;;;;2.00;1.30;;;;;;;17.65;100.00;101238.94;6246796;28;20053;-76
2021/08/22 00:39:33;;;;;;;2.45;1.90;;;;;;;17.65;100.00;101238.94;6246798;28;20122;-76
2021/08/22 00:42:35;;;;;;;3.60;1.75;;;;;;;17.59;100.00;101229.63;6246814;28;20053;-76
2021/08/22 00:45:38;;;;;;;3.15;1.77;;;;;;;17.57;100.00;101226.22;6246499;28;20485;-76
2021/08/22 00:48:42;;;;;;;2.35;1.52;;;;;;;17.55;100.00;101230.81;6246901;28;20056;-75
2021/08/22 00:51:44;;;;;;;3.20;1.85;;;;;;;17.54;100.00;101228.28;6246840;28;20057;-76
2021/08/22 00:54:45;;;;;;;2.55;1.90;;;;;;;17.50;100.00;101217.88;6246370;28;20050;-76
2021/08/22 00:57:46;;;;;;;2.00;1.40;;;;;;;17.48;100.00;101218.94;6246716;28;20420;-75
2021/08/22 01:00:49;;;;;;;2.55;1.98;;;;;;;17.46;100.00;101224.38;6246694;28;20046;-76
2021/08/22 01:03:59;;;;;;;2.10;1.58;;;;;;;17.47;100.00;101215.44;6246245;28;20053;-76
2021/08/22 01:07:18;;;;;;;4.45;1.80;;;;;;;17.45;100.00;101198.78;6246660;28;20049;-76
2021/08/22 01:10:24;;;;;;;1.50;1.40;;;;;;;17.49;100.00;101199.41;6246468;28;20049;-76
2021/08/22 01:13:29;;;;;;;1.95;1.50;;;;;;;17.47;100.00;101196.00;6246372;28;20519;-76
2021/08/22 01:16:34;;;;;;;1.70;1.42;;;;;;;17.47;100.00;101190.69;6246264;28;20046;-76
2021/08/22 01:19:51;;;;;;;3.75;2.10;;;;;;;17.47;100.00;101188.88;6246700;28;20049;-75
2021/08/22 01:22:55;;;;;;;2.03;1.45;;;;;;;17.47;100.00;101193.34;6246202;28;20163;-75
2021/08/22 01:26:00;;;;;;;2.50;1.50;;;;;;;17.47;100.00;101190.69;6245950;28;20068;-76
2021/08/22 01:29:03;;;;;;;2.33;1.40;;;;;;;17.45;100.00;101188.16;6246299;28;20064;-76
2021/08/22 01:32:06;;;;;;;1.90;1.67;;;;;;;17.45;100.00;101180.19;6246430;28;20497;-76
2021/08/22 01:35:11;;;;;;;2.40;1.40;;;;;;;17.39;100.00;101182.44;6245778;28;20048;-76
2021/08/22 01:38:14;;;;;;;1.85;1.52;;;;;;;17.38;100.00;101189.56;6246220;28;20065;-76
2021/08/22 01:41:17;;;;;;;3.03;1.85;;;;;;;17.35;100.00;101184.50;6246188;28;20056;-75
2021/08/22 01:44:20;;;;;;;2.15;1.42;;;;;;;17.33;100.00;101189.06;6246829;28;20060;-76
2021/08/22 01:47:23;;;;;;;1.52;1.42;;;;;;;17.30;100.00;101178.66;6250717;28;20046;-76
2021/08/22 01:50:26;;;;;;;1.63;1.35;;;;;;;17.26;100.00;101179.88;6250908;28;20057;-76
2021/08/22 01:53:27;;;;;;;1.70;1.50;;;;;;;17.24;100.00;101179.97;6250195;28;20057;-76
2021/08/22 01:56:30;;;;;;;2.22;1.75;;;;;;;17.22;100.00;101179.25;6250776;28;20048;-76
2021/08/22 01:59:35;;;;;;;2.70;1.73;;;;;;;17.22;100.00;101165.13;6250501;28;20042;-76
2021/08/22 02:02:38;;;;;;;1.67;1.50;;;;;;;17.20;100.00;101167.03;6250516;28;20184;-76
2021/08/22 02:05:41;;;;;;;1.38;1.27;;;;;;;17.20;100.00;101161.72;6250222;28;20045;-76
2021/08/22 02:08:45;;;;;;;2.45;1.70;;;;;;;17.14;100.00;101155.06;6250432;28;20054;-76
2021/08/22 02:11:50;;;;;;;1.55;1.40;;;;;;;17.12;100.00;101154.34;6250304;28;20050;-75
2021/08/22 02:15:00;;;;;;;2.63;1.38;;;;;;;17.09;100.00;101143.94;6249998;28;20132;-76
2021/08/22 02:18:04;;;;;;;2.53;1.73;;;;;;;17.05;100.00;101142.47;6249980;28;20436;-76
2021/08/22 02:21:08;;;;;;;2.00;1.67;;;;;;;17.05;100.00;101147.78;6249990;28;20428;-76
2021/08/22 02:24:10;;;;;;;3.22;1.20;;;;;;;17.04;100.00;101142.59;6249594;28;20050;-75
2021/08/22 02:27:12;;;;;;;2.63;1.73;;;;;;;16.98;100.00;101147.38;6249742;28;20056;-76
2021/08/22 02:30:14;;;;;;;1.50;1.10;;;;;;;16.98;100.00;101149.16;6249807;28;20052;-76
2021/08/22 02:33:16;;;;;;;1.70;1.30;;;;;;;16.94;100.00;101143.25;6249875;28;20049;-76
2021/08/22 02:36:18;;;;;;;2.25;1.30;;;;;;;16.94;100.00;101137.09;6249475;28;20045;-76
2021/08/22 02:39:20;;;;;;;2.42;1.40;;;;;;;16.88;100.00;101127.78;6249561;28;20060;-75
2021/08/22 02:42:21;;;;;;;2.47;1.48;;;;;;;16.87;100.00;101127.88;6249728;28;20054;-76
2021/08/22 02:45:22;;;;;;;3.35;2.38;;;;;;;16.86;100.00;101129.69;6249043;28;20057;-75
2021/08/22 02:48:23;;;;;;;2.08;1.30;;;;;;;16.85;100.00;101119.19;6249561;28;20049;-75
2021/08/22 02:51:26;;;;;;;2.72;1.65;;;;;;;16.84;100.00;101112.19;6249010;28;20408;-76
2021/08/22 02:54:28;;;;;;;1.65;1.20;;;;;;;16.82;100.00;101106.16;6248748;28;20053;-76
2021/08/22 02:57:29;;;;;;;1.50;1.25;;;;;;;16.79;100.00;101109.88;6248924;28;20058;-76
2021/08/22 03:00:30;;;;;;;1.67;1.20;;;;;;;16.77;100.00;101103.00;6248976;28;20390;-76
2021/08/22 03:03:32;;;;;;;2.70;1.40;;;;;;;16.71;100.00;101105.09;6248675;28;20405;-77
2021/08/22 03:06:34;;;;;;;1.85;1.40;;;;;;;16.70;100.00;101102.53;6249079;28;20041;-76
2021/08/22 03:09:36;;;;;;;2.13;1.60;;;;;;;16.73;100.00;101110.31;6249092;28;20053;-76
2021/08/22 03:12:37;;;;;;;3.22;1.88;;;;;;;16.72;100.00;101105.97;6249128;28;20056;-76
2021/08/22 03:15:39;;;;;;;1.20;1.10;;;;;;;16.73;100.00;101107.66;6248422;28;20045;-75
2021/08/22 03:18:40;;;;;;;2.15;1.52;;;;;;;16.74;100.00;101106.69;6248734;28;20647;-76
2021/08/22 03:21:45;;;;;;;2.35;1.67;;;;;;;16.72;100.00;101106.81;6248763;28;20049;-76
2021/08/22 03:24:47;;;;;;;2.70;1.63;;;;;;;16.73;100.00;101103.22;6242240;28;20184;-76
2021/08/22 03:27:48;;;;;;;2.13;1.52;;;;;;;16.73;100.00;101099.72;6244652;28;20424;-76
2021/08/22 03:30:52;;;;;;;4.20;2.08;;;;;;;16.74;100.00;101096.09;6248189;28;20053;-75
2021/08/22 03:33:54;;;;;;;2.83;1.73;;;;;;;16.77;100.00;101106.50;6248229;28;20408;-75
2021/08/22 03:36:56;;;;;;;1.98;1.30;;;;;;;16.79;100.00;101098.41;6248037;28;20065;-75
2021/08/22 03:39:58;;;;;;;3.22;1.63;;;;;;;16.74;100.00;101114.66;6248346;28;20049;-75
2021/08/22 03:42:59;;;;;;;2.72;1.90;;;;;;;16.77;100.00;101166.69;6247939;28;20436;-77
2021/08/22 03:46:00;;;;;;;2.67;1.75;;;;;;;16.73;100.00;101102.38;6248057;28;20045;-77
2021/08/22 03:49:02;;;;;;;2.85;1.83;;;;;;;16.74;100.00;101170.41;6247899;28;20046;-77
2021/08/22 03:52:06;;;;;;;4.75;2.38;;;;;;;16.76;100.00;101152.56;6247202;28;20076;-77
2021/08/22 03:55:07;;;;;;;4.20;2.00;;;;;;;16.77;100.00;101141.00;6223016;28;20046;-77
2021/08/22 03:58:09;;;;;;;3.05;2.15;;;;;;;16.82;100.00;101149.47;6223156;28;20413;-77
2021/08/22 04:01:10;;;;;;;3.03;2.20;;;;;;;16.82;100.00;101146.81;6227584;28;20053;-77
2021/08/22 04:04:11;;;;;;;4.05;2.10;;;;;;;16.82;100.00;101149.47;6223557;28;20058;-77
2021/08/22 04:07:14;;;;;;;2.58;1.88;;;;;;;16.83;100.00;101145.00;6222390;28;20524;-77
2021/08/22 04:10:17;;;;;;;3.78;2.20;;;;;;;16.83;100.00;101142.34;6223319;28;20050;-77
2021/08/22 04:13:19;;;;;;;2.50;1.88;;;;;;;16.82;100.00;101152.13;6222996;28;20057;-77
2021/08/22 04:16:20;;;;;;;3.08;2.30;;;;;;;16.81;100.00;101152.25;6222636;28;20056;-77
2021/08/22 04:19:22;;;;;;;4.03;2.35;;;;;;;16.77;100.00;101142.81;6222996;28;20493;-77
2021/08/22 04:22:25;;;;;;;6.00;2.22;;;;;;;16.73;100.00;101150.97;6222630;28;20053;-76
2021/08/22 04:25:26;;;;;;;2.33;1.73;;;;;;;16.63;100.00;101152.59;6222572;28;20050;-77
2021/08/22 04:28:27;;;;;;;5.25;2.53;;;;;;;16.53;100.00;101156.84;6222631;28;20050;-77
2021/08/22 04:31:29;;;;;;;3.50;2.58;;;;;;;16.42;100.00;101152.31;6222938;28;20619;-76
2021/08/22 04:34:30;;;;;;;4.03;2.90;;;;;;;16.32;100.00;101151.28;6222145;28;20057;-75
2021/08/22 04:37:33;;;;;;;5.32;2.95;;;;;;;16.24;100.00;101145.66;6222671;28;20053;-75
2021/08/22 04:40:37;;;;;;;6.15;3.65;;;;;;;16.24;100.00;101148.31;6222361;28;20045;-76
2021/08/22 04:43:38;;;;;;;6.40;3.20;;;;;;;16.21;100.00;101148.50;6223071;28;20050;-78
2021/08/22 04:46:40;;;;;;;5.43;3.63;;;;;;;16.16;100.00;101151.50;6222721;28;20056;-75
2021/08/22 04:49:41;;;;;;;3.70;3.20;;;;;;;16.12;100.00;101147.34;6221776;28;20521;-77
2021/08/22 04:52:44;;;;;;;5.13;3.50;;;;;;;16.11;100.00;101150.13;6222249;28;20057;-75
2021/08/22 04:55:45;;;;;;;4.78;3.22;;;;;;;16.09;100.00;101157.34;6222779;28;20042;-79
2021/08/22 04:58:47;;;;;;;6.07;3.47;;;;;;;16.07;100.00;101143.34;6229445;28;20054;-78
2021/08/22 05:01:48;;;;;;;5.40;3.60;;;;;;;16.05;100.00;101151.41;6226223;28;20078;-80
2021/08/22 05:04:50;;;;;;;5.72;3.40;;;;;;;16.05;100.00;101158.50;6223083;28;20057;-78
2021/08/22 05:07:56;;;;;;;4.93;3.40;;;;;;;16.01;100.00;101157.03;6222853;28;20057;-78
2021/08/22 05:10:58;;;;;;;7.63;3.28;;;;;;;15.97;100.00;101154.59;6222707;28;20057;-76
2021/08/22 05:13:59;;;;;;;5.18;3.35;;;;;;;15.97;100.00;101159.03;6222881;28;20049;-78
2021/08/22 05:17:01;;;;;;;4.68;3.30;;;;;;;15.96;100.00;101154.69;6223463;28;20058;-78
2021/08/22 05:20:02;;;;;;;4.47;3.13;;;;;;;15.94;100.00;101151.28;6226858;28;20050;-78
2021/08/22 05:23:05;;;;;;;5.90;3.58;;;;;;;15.93;100.00;101154.91;6228521;28;20064;-78
2021/08/22 05:26:06;;;;;;;7.32;3.67;;;;;;;15.93;100.00;101154.91;6228365;28;20054;-79
2021/08/22 05:29:08;;;;;;;5.50;3.80;;;;;;;15.89;100.00;101153.41;6228420;28;20050;-79
2021/08/22 05:32:09;;;;;;;7.90;4.15;;;;;;;15.86;100.00;101161.59;6234199;28;20073;-76
2021/08/22 05:35:11;;;;;;;4.82;3.78;;;;;;;15.86;100.00;101157.16;6252644;28;20448;-77
2021/08/22 05:38:13;;;;;;;6.15;3.78;;;;;;;15.88;100.00;101162.31;6252556;28;20045;-78
2021/08/22 05:41:15;;;;;;;5.57;3.67;;;;;;;15.89;100.00;101156.06;6252523;28;20049;-79
2021/08/22 05:44:16;;;;;;;5.50;3.75;;;;;;;15.90;100.00;101165.75;6252270;28;20054;-77
2021/08/22 05:47:20;;;;;;;5.15;3.38;;;;;;;15.85;100.00;101167.84;6251948;28;20408;-79
2021/08/22 05:50:22;;;;;;;5.47;3.85;;;;;;;15.90;100.00;101160.44;6252015;28;20128;-78
2021/08/22 05:53:24;;;;;;;6.43;3.85;;;;;;;15.92;100.00;101166.47;6251361;28;20424;-77
2021/08/22 05:56:26;;;;;;;8.75;3.72;;;;;;;15.94;100.00;101162.78;6251982;28;20052;-78
2021/08/22 05:59:27;;;;;;;7.40;4.00;;;;;;;15.89;100.00;101161.38;6237505;28;20444;-79
2021/08/22 06:02:28;;;;;;;5.63;4.63;;;;;;;15.91;100.00;101170.06;6238324;28;20054;-78
2021/08/22 06:05:30;;;;;;;6.45;4.35;;;;;;;15.92;100.00;101175.25;6237201;28;20049;-78
2021/08/22 06:08:33;;;;;;;4.25;3.20;;;;;;;15.93;100.00;101178.75;6238327;28;20056;-78
2021/08/22 06:11:34;;;;;;;5.57;3.78;;;;;;;15.90;100.00;101171.88;6238434;28;20060;-79
2021/08/22 06:14:35;;;;;;;5.50;3.75;;;;;;;15.92;100.00;101169.97;6237805;28;20045;-79
2021/08/22 06:17:36;;;;;;;5.47;4.03;;;;;;;15.90;100.00;101163.09;6246848;28;20041;-78
2021/08/22 06:20:38;;;;;;;4.90;3.78;;;;;;;15.87;100.00;101158.84;6251110;28;20045;-79
2021/08/22 06:23:41;;;;;;;5.95;3.80;;;;;;;15.84;100.00;101166.97;6249729;28;20045;-78
2021/08/22 06:26:43;;;;;;;6.05;3.72;;;;;;;15.84;100.00;101176.75;6233194;28;20417;-79
2021/08/22 06:29:44;;;;;;;6.22;3.80;;;;;;;15.86;100.00;101178.34;6225871;28;20428;-79
2021/08/22 06:32:46;;;;;;;5.78;3.60;;;;;;;15.86;100.00;101175.69;6227148;28;20054;-78
2021/08/22 06:35:47;;;;;;;5.30;3.35;;;;;;;15.88;100.00;101183.53;6225736;28;20061;-75
2021/08/22 06:38:49;;;;;;;5.70;3.90;;;;;;;15.89;100.00;101180.75;6226304;28;20238;-78
2021/08/22 06:41:51;;;;;;;6.60;4.05;;;;;;;15.93;100.00;101189.38;6226621;28;20056;-78
2021/08/22 06:44:52;;;;;;;7.35;4.20;;;;;;;15.92;100.00;101190.31;6226357;28;20046;-78
2021/08/22 06:47:54;;;;;;;8.50;4.28;;;;;;;15.92;100.00;101190.31;6225839;28;20046;-76
2021/08/22 06:50:55;;;;;;;7.05;4.85;;;;;;;15.91;100.00;101188.63;6225795;28;20420;-78
2021/08/22 06:53:58;;;;;;;6.47;4.10;;;;;;;15.92;100.00;101185.88;6225751;28;20520;-78
2021/08/22 06:56:59;;;;;;;6.95;4.93;;;;;;;15.90;100.00;101190.44;6224654;28;20042;-76
2021/08/22 07:00:01;;;;;;;5.78;3.55;;;;;;;15.91;100.00;101194.78;6224870;28;20161;-78
2021/08/22 07:03:02;;;;;;;7.07;4.00;;;;;;;15.93;100.00;101194.66;6226092;28;20110;-78
2021/08/22 07:06:03;;;;;;;5.70;3.38;;;;;;;15.94;100.00;101193.69;6232913;28;20061;-78
2021/08/22 07:09:07;;;;;;;6.68;3.97;;;;;;;15.92;100.00;101195.63;6233251;28;20060;-79
2021/08/22 07:12:09;;;;;;;6.18;3.97;;;;;;;15.90;100.00;101192.25;6244322;28;20424;-79
2021/08/22 07:15:12;;;;;;;6.72;4.15;;;;;;;15.91;100.00;101194.78;6249863;28;20050;-78
2021/08/22 07:18:14;;;;;;;9.48;4.78;;;;;;;15.93;100.00;101192.00;6247997;28;20050;-78
2021/08/22 07:21:15;;;;;;;7.10;4.05;;;;;;;15.91;100.00;101197.44;6238355;28;20050;-77
2021/08/22 07:24:18;;;;;;;6.78;4.45;;;;;;;15.92;100.00;101196.47;6249002;28;20054;-78
2021/08/22 07:27:19;;;;;;;7.65;4.50;;;;;;;15.92;100.00;101196.47;6241404;28;20053;-78
2021/08/22 07:30:22;;;;;;;7.35;3.97;;;;;;;15.94;100.00;101197.22;6225055;28;20054;-79
2021/08/22 07:33:23;;;;;;;5.07;3.92;;;;;;;15.98;100.00;101197.84;6225306;28;20132;-78
2021/08/22 07:36:25;;;;;;;5.35;3.60;;;;;;;16.01;100.00;101196.78;6224872;28;20042;-78
2021/08/22 07:39:27;;;;;;;6.35;4.47;;;;;;;16.02;100.00;101199.34;6237432;28;20057;-78
2021/08/22 07:42:29;;;;;;;7.80;4.30;;;;;;;16.04;100.00;101202.75;6240583;28;20060;-79
2021/08/22 07:45:30;;;;;;;7.45;4.32;;;;;;;16.07;100.00;101212.28;6248935;28;20056;-78
2021/08/22 07:48:32;;;;;;;6.50;4.03;;;;;;;16.08;100.00;101204.22;6248618;28;20052;-76
2021/08/22 07:51:33;;;;;;;8.20;4.97;;;;;;;16.13;100.00;101210.06;6239683;28;20045;-79
2021/08/22 07:54:36;;;;;;;6.30;4.03;;;;;;;16.16;100.00;101216.94;6235364;28;20052;-78
2021/08/22 07:57:37;;;;;;;6.63;4.43;;;;;;;16.22;100.00;101208.56;6242276;28;20068;-77
2021/08/22 08:00:39;;;;;;;6.45;3.97;;;;;;;16.27;100.00;101214.41;6232129;28;20053;-77
2021/08/22 08:03:40;;;;;;;5.38;3.70;;;;;;;16.31;100.00;101217.69;6227298;28;20386;-77
2021/08/22 08:06:42;;;;;;;7.82;4.35;;;;;;;16.34;100.00;101215.66;6247753;28;20497;-77
2021/08/22 08:09:44;;;;;;;5.13;3.60;;;;;;;16.39;100.00;101215.34;6247532;28;20049;-77
2021/08/22 08:12:46;;;;;;;7.10;4.85;;;;;;;16.46;100.00;101217.47;6247503;28;20053;-77
2021/08/22 08:15:48;;;;;;;7.50;4.65;;;;;;;16.48;100.00;101215.53;6246562;28;20489;-76
2021/08/22 08:18:49;;;;;;;5.95;4.30;;;;;;;16.53;100.00;101209.06;6247345;28;20057;-76
2021/08/22 08:21:50;;;;;;;6.25;4.15;;;;;;;16.58;100.00;101220.19;6247249;28;20049;-76
2021/08/22 08:24:53;;;;;;;8.48;4.38;;;;;;;16.63;100.00;101221.56;6246290;28;20053;-77
2021/08/22 08:27:54;;;;;;;6.82;4.28;;;;;;;16.67;100.00;101225.72;6247020;28;20048;-77
2021/08/22 08:30:56;;;;;;;6.65;4.07;;;;;;;16.70;100.00;101221.97;6228250;28;20057;-77
2021/08/22 08:33:57;;;;;;;6.05;4.20;;;;;;;16.73;100.00;101227.94;6225650;28;20045;-77
2021/08/22 08:36:58;;;;;;;5.43;4.25;;;;;;;16.79;100.00;101231.97;6231867;28;20053;-77
2021/08/22 08:40:01;;;;;;;5.72;4.40;;;;;;;16.81;100.00;101227.41;6247056;28;20053;-77
2021/08/22 08:43:03;;;;;;;7.18;4.75;;;;;;;16.87;100.00;101224.31;6246427;28;20428;-77
2021/08/22 08:46:07;;;;;;;7.57;5.07;;;;;;;16.93;100.00;101231.81;6246287;28;20056;-77
2021/08/22 08:49:09;;;;;;;5.95;4.03;;;;;;;16.99;100.00;101239.34;6244557;28;20049;-76
2021/08/22 08:52:15;;;;;;;9.98;5.05;;;;;;;17.15;100.00;101238.22;6222211;28;20072;-76
2021/08/22 08:55:26;;;;;;;8.10;4.75;;;;;;;17.17;100.00;101239.00;6222079;28;20053;-77
2021/08/22 08:58:27;;;;;;;7.22;4.57;;;;;;;17.23;100.00;101242.03;6226161;28;20045;-76
2021/08/22 09:01:29;;;;;;;7.35;4.95;;;;;;;17.31;100.00;101241.47;6231863;28;20045;-76
2021/08/22 09:04:32;;;;;;;5.60;4.03;;;;;;;17.39;100.00;101243.53;6237544;28;20048;-77
2021/08/22 09:08:06;;;;;;;5.07;3.65;;;;;;;17.48;100.00;101242.84;6238572;28;20046;-78
2021/08/22 09:11:56;;;;;;;7.80;4.75;;;;;;;17.56;100.00;101248.47;6232139;28;20428;-77
2021/08/22 09:15:43;;;;;;;4.97;3.70;;;;;;;17.67;100.00;101243.19;6232431;28;20512;-77
2021/08/22 09:19:29;;;;;;;6.18;4.35;;;;;;;17.70;100.00;101256.25;6233141;28;20041;-77
2021/08/22 09:23:13;;;;;;;9.15;5.10;;;;;;;17.70;100.00;101253.59;6189449;28;20050;-76
2021/08/22 09:26:52;;;;;;;7.47;4.65;;;;;;;17.63;100.00;101254.19;6232394;28;20060;-77
2021/08/22 09:30:29;;;;;;;8.60;4.63;;;;;;;17.61;100.00;101254.28;6228681;28;20054;-77
2021/08/22 09:34:04;;;;;;;7.18;5.00;;;;;;;17.66;100.00;101252.13;6218062;28;20518;-77
2021/08/22 09:37:43;;;;;;;9.32;5.00;;;;;;;17.74;100.00;101248.91;6203712;28;20050;-76
2021/08/22 09:41:26;;;;;;;9.52;5.50;;;;;;;17.84;100.00;101244.59;6232852;28;20053;-78
2021/08/22 09:45:04;;;;;;;7.63;5.03;;;;;;;18.01;100.00;101248.63;6224165;28;20080;-77
2021/08/22 09:48:51;;;;;;;9.95;5.35;;;;;;;18.19;100.00;101252.53;6232498;28;20192;-78
2021/08/22 09:52:36;;;;;;;8.68;5.65;;;;;;;18.27;100.00;101240.47;6231111;28;20045;-77
2021/08/22 09:56:09;;;;;;;7.97;4.85;;;;;;;18.27;100.00;101246.63;6230899;28;20412;-78
2021/08/22 09:59:50;;;;;;;9.40;4.97;;;;;;;18.26;100.00;101252.94;6234553;28;20564;-77
2021/08/22 10:03:24;;;;;;;6.82;4.10;;;;;;;18.34;100.00;101254.97;6232962;28;20049;-75
2021/08/22 10:06:48;;;;;;;6.18;4.25;;;;;;;18.44;100.00;101246.16;6235584;28;20050;-75
2021/08/22 10:09:55;;;;;;;5.68;3.75;;;;;;;18.64;100.00;101244.59;6234764;28;20050;-76
2021/08/22 10:12:59;;;;;;;5.75;3.25;;;;;;;18.57;100.00;101237.19;6229828;28;20061;-75
2021/08/22 10:16:00;;;;;;;6.15;3.60;;;;;;;18.44;100.00;101242.63;6226152;28;20065;-76
2021/08/22 10:19:04;;;;;;;5.07;3.75;;;;;;;18.33;100.00;101240.81;6241342;28;20057;-76
2021/08/22 10:22:17;;;;;;;5.57;3.28;;;;;;;18.25;100.00;101241.41;6240059;28;20136;-76
2021/08/22 10:25:50;;;;;;;5.47;3.85;;;;;;;18.31;100.00;101229.47;6234813;28;20534;-77
2021/08/22 10:29:07;;;;;;;7.70;4.60;;;;;;;18.59;100.00;101238.78;6237043;28;20511;-77
2021/08/22 10:32:09;;;;;;;5.43;3.95;;;;;;;18.61;100.00;101233.31;6235923;28;20045;-76
2021/08/22 10:35:20;;;;;;;3.97;3.30;;;;;;;18.54;100.00;101246.28;6235505;28;20046;-76
2021/08/22 10:38:27;;;;;;;5.50;4.28;;;;;;;18.44;100.00;101239.97;6235387;28;20509;-77
2021/08/22 10:41:36;;;;;;;6.95;3.75;;;;;;;18.54;100.00;101238.31;6233495;28;20398;-77
2021/08/22 10:44:40;;;;;;;5.85;3.60;;;;;;;18.50;100.00;101237.69;6224557;28;20057;-76
2021/08/22 10:47:43;;;;;;;4.57;3.05;;;;;;;18.52;100.00;101242.88;6244927;28;20049;-77
2021/08/22 10:51:10;;;;;;;5.07;3.85;;;;;;;18.68;100.00;101234.53;6248903;28;20068;-75
2021/08/22 10:54:21;;;;;;;6.13;3.33;;;;;;;18.91;100.00;101235.41;6249109;28;20049;-78
2021/08/22 10:57:49;;;;;;;3.63;2.83;;;;;;;18.87;100.00;101232.13;6242231;28;20489;-76
2021/08/22 11:01:18;;;;;;;8.02;3.60;;;;;;;18.85;100.00;101230.53;6230018;28;20060;-78
2021/08/22 11:04:22;;;;;;;5.53;3.17;;;;;;;18.74;100.00;101236.75;6226007;28;20188;-78
2021/08/22 11:07:24;;;;;;;5.20;3.15;;;;;;;18.69;100.00;101242.44;6225555;28;20132;-77
2021/08/22 11:10:27;;;;;;;4.70;3.60;;;;;;;18.61;100.00;101241.31;6224896;28;20053;-77
2021/08/22 11:13:30;;;;;;;4.30;3.40;;;;;;;18.56;100.00;101239.00;6244116;28;20530;-78
2021/08/22 11:16:45;;;;;;;5.00;3.42;;;;;;;18.69;100.00;101236.25;6241360;28;20105;-77
2021/08/22 11:19:47;;;;;;;4.35;2.83;;;;;;;18.88;100.00;101239.13;6247014;28;20045;-77
2021/08/22 11:22:50;;;;;;;5.10;3.17;;;;;;;19.07;100.00;101241.16;6248842;28;20511;-77
2021/08/22 11:26:01;;;;;;;5.63;3.38;;;;;;;19.21;100.00;101238.25;6245831;28;20114;-77
2021/08/22 11:29:03;;;;;;;4.05;2.95;;;;;;;19.24;100.00;101239.78;6241279;28;20053;-78
2021/08/22 11:32:07;;;;;;;3.90;2.85;;;;;;;19.20;100.00;101235.69;6248396;28;20483;-78
2021/08/22 11:35:13;;;;;;;4.85;2.70;;;;;;;19.16;100.00;101229.75;6248085;28;20057;-79
2021/08/22 11:38:16;;;;;;;3.45;2.60;;;;;;;19.13;100.00;101238.00;6247515;28;20049;-78
2021/08/22 11:41:18;;;;;;;4.13;2.92;;;;;;;19.17;100.00;101233.28;6246486;28;20052;-77
2021/08/22 11:44:23;;;;;;;3.58;2.70;;;;;;;19.24;100.00;101224.63;6237296;28;20041;-76
2021/08/22 11:47:26;;;;;;;4.15;2.30;;;;;;;19.53;100.00;101229.41;6235411;28;20058;-76
2021/08/22 11:50:29;;;;;;;5.15;2.70;;;;;;;19.91;100.00;101236.03;6231325;28;20057;-75
2021/08/22 11:53:32;;;;;;;3.42;2.13;;;;;;;20.17;100.00;101228.47;6233441;28;20045;-75
2021/08/22 11:56:33;;;;;;;4.30;2.50;;;;;;;20.23;99.15;101230.59;6234307;28;20050;-78
2021/08/22 11:59:34;;;;;;;5.50;2.85;;;;;;;19.94;98.67;101225.06;6233591;28;20651;-79
2021/08/22 12:02:37;;;;;;;3.88;2.63;;;;;;;19.75;100.00;101228.47;6234014;28;20053;-79
2021/08/22 12:05:51;;;;;;;3.88;2.42;;;;;;;19.70;100.00;101220.84;6232503;28;20056;-77
2021/08/22 12:08:53;;;;;;;4.15;2.53;;;;;;;19.72;100.00;101220.72;6246169;28;20053;-79
2021/08/22 12:11:54;;;;;;;4.05;2.35;;;;;;;20.07;98.24;101215.03;6247759;28;20489;-79
2021/08/22 12:15:07;;;;;;;3.65;2.50;;;;;;;20.26;100.00;101223.19;6247346;28;20060;-78
2021/08/22 12:18:27;;;;;;;3.38;2.22;;;;;;;20.38;100.00;101220.41;6241143;28;20052;-79
2021/08/22 12:21:29;;;;;;;4.07;2.28;;;;;;;20.33;100.00;101214.63;6247209;28;20497;-78
2021/08/22 12:24:30;;;;;;;3.35;2.60;;;;;;;20.33;100.00;101222.63;6246557;28;20075;-79
2021/08/22 12:27:36;;;;;;;4.13;2.35;;;;;;;20.49;100.00;101221.19;6247271;28;20053;-77
2021/08/22 12:30:37;;;;;;;3.70;2.67;;;;;;;20.98;100.00;101221.31;6236638;28;20057;-79
2021/08/22 12:33:42;;;;;;;4.13;2.30;;;;;;;21.06;90.59;101226.84;6222828;28;20057;-78
2021/08/22 12:36:45;;;;;;;3.33;2.63;;;;;;;20.64;93.98;101220.81;6223539;28;20497;-78
2021/08/22 12:39:56;;;;;;;3.22;2.63;;;;;;;20.70;94.93;101220.28;6224184;28;20046;-79
2021/08/22 12:42:57;;;;;;;4.40;2.75;;;;;;;21.21;90.62;101227.28;6223002;28;20156;-79
2021/08/22 12:45:59;;;;;;;3.47;2.22;;;;;;;21.52;92.92;101214.66;6223191;28;20057;-79
2021/08/22 12:49:02;;;;;;;3.78;2.42;;;;;;;22.03;92.04;101208.97;6222738;28;20057;-78
2021/08/22 12:52:07;;;;;;;3.78;2.35;;;;;;;22.27;90.44;101213.00;6223047;28;20505;-78
2021/08/22 12:55:10;;;;;;;3.28;2.22;;;;;;;21.87;91.20;101214.06;6222771;28;20050;-79
2021/08/22 12:58:11;;;;;;;3.53;2.08;;;;;;;21.59;97.82;101220.31;6222946;28;20053;-79
2021/08/22 13:01:12;;;;;;;3.17;2.22;;;;;;;21.11;93.34;101215.72;6222639;28;20398;-79
2021/08/22 13:04:17;;;;;;;3.97;2.15;;;;;;;21.31;97.02;101212.13;6238057;28;20052;-78
2021/08/22 13:07:18;;;;;;;3.95;2.28;;;;;;;21.76;86.99;101208.88;6247695;28;20057;-77
2021/08/22 13:10:19;;;;;;;4.65;2.35;;;;;;;21.45;87.96;101213.53;6247018;28;20054;-77
2021/08/22 13:13:21;;;;;;;3.05;2.33;;;;;;;21.62;84.50;101207.50;6246314;28;20049;-76
2021/08/22 13:16:23;;;;;;;3.42;2.05;;;;;;;22.21;84.56;101208.22;6246083;28;20050;-78
2021/08/22 13:19:26;;;;;;;2.85;2.15;;;;;;;22.26;87.30;101200.63;6246541;28;20602;-78
2021/08/22 13:22:27;;;;;;;3.28;1.88;;;;;;;22.07;81.10;101212.16;6246795;28;20053;-77
2021/08/22 13:25:31;;;;;;;3.70;2.28;;;;;;;22.19;79.25;101203.00;6245664;28;20069;-78
2021/08/22 13:28:33;;;;;;;3.38;2.20;;;;;;;21.77;83.42;101203.38;6246460;28;20138;-78
2021/08/22 13:31:34;;;;;;;3.25;2.05;;;;;;;21.40;90.99;101197.94;6247049;28;20049;-78
2021/08/22 13:34:37;;;;;;;4.63;2.83;;;;;;;21.07;90.71;101201.78;6245493;28;20051;-78
2021/08/22 13:37:38;;;;;;;3.30;2.33;;;;;;;20.86;94.17;101199.25;6239308;28;20054;-78
2021/08/22 13:40:39;;;;;;;4.85;2.90;;;;;;;20.78;95.53;101201.75;6238801;28;20045;-78
2021/08/22 13:43:41;;;;;;;3.47;2.17;;;;;;;20.88;91.15;101199.94;6249995;28;20053;-78
2021/08/22 13:46:42;;;;;;;4.18;2.30;;;;;;;21.33;92.93;101195.94;6251633;28;20049;-77
2021/08/22 13:49:45;;;;;;;4.28;2.47;;;;;;;21.66;90.79;101200.00;6234834;28;20437;-78
2021/08/22 13:52:47;;;;;;;3.13;2.17;;;;;;;22.04;91.44;101196.41;6234331;28;20050;-78
2021/08/22 13:55:48;;;;;;;2.30;1.65;;;;;;;22.31;87.69;101194.81;6231881;28;20493;-78
2021/08/22 13:58:49;;;;;;;3.85;2.03;;;;;;;22.21;88.72;101193.03;6233636;28;20416;-77
2021/08/22 14:01:51;;;;;;;3.15;2.00;;;;;;;21.97;89.43;101193.47;6251120;28;20049;-78
2021/08/22 14:04:53;;;;;;;3.00;2.05;;;;;;;21.85;93.50;101200.00;6250404;28;20054;-79
2021/08/22 14:07:55;;;;;;;3.55;2.13;;;;;;;22.11;92.61;101189.47;6251556;28;20049;-77
2021/08/22 14:10:56;;;;;;;3.60;2.10;;;;;;;22.54;87.05;101188.91;6251028;28;20080;-78
2021/08/22 14:13:57;;;;;;;11.98;7.15;;;;;;;22.54;84.66;101188.09;6247762;28;20053;-78